Terminal Aerodrome Forecast
Issued by NWS

Current Version | Previous Version | Text Only | Print | Product List | Glossary Off
Versions: 1 2 3 4 5 6 7 8 9 10 11 12 13 14 15 16 17 18 19 20 21 22 23 24 25 26 27 28 29

851
FTUS41 KRLX 251749
TAFCKB
TAF
KCKB 251749Z 2518/2618 25005KT P6SM VCTS BKN035CB
     FM260300 VRB03KT P6SM VCTS BKN045CB
     FM261000 VRB02KT 5SM -RA BKN030
     FM261100 VRB03KT 4SM -RA BKN014
     FM261300 VRB03KT P6SM BKN035=

USA.gov is the U.S. government's official web portal to all federal, state and local government web resources and services.